M I D A S
Marine Information and Data Acquisition System
Tripno 2022 of the Zeeleeuw from 2010-09-07 06:20:03 to 2010-09-07 10:14:17
Back to CruiseResearch ActivitiesStationsMapUnderway DataData graphs

EquipmentUnitsComment
TimeDGPSUTC
LatitudeDGPSDM.mWGS84
LongitudeDGPSDM.mWGS84
HeadingGyrodeg 
SOGDGPSknotsSpeed over ground
COGDGPSdegCourse over ground
DepthEcho soundermeters200 kHz
Missing or incorrect values are displayed as -999
Navigation data collected by the RV Zeeleeuw from 2010-09-07 06:20:47 to 2010-09-07 10:14:16
Time Latitude Longitude Heading SOG COG Depth
2010-09-07 06:21:52 51°13.676 2°55.896 106.8 3.9 287 -999
2010-09-07 06:22:52 51°13.689 2°55.789 95.4 3.7 277 -999
2010-09-07 06:23:52 51°13.686 2°55.733 66.1 0.1 185 11.5
2010-09-07 06:24:51 51°13.701 2°55.752 10.3 2 16 12.2
2010-09-07 06:25:50 51°13.758 2°55.701 323.7 6.1 323 10.3
2010-09-07 06:26:49 51°13.865 2°55.606 335.7 8.4 335 9.8
2010-09-07 06:27:48 51°14.001 2°55.508 336.8 9.5 335 9.4
2010-09-07 06:28:48 51°14.149 2°55.399 338.6 9.9 335 9.7
2010-09-07 06:29:48 51°14.295 2°55.271 328.6 10.1 326 9.4
2010-09-07 06:30:48 51°14.446 2°55.125 329.3 11.3 327 9.7
2010-09-07 06:31:48 51°14.613 2°54.929 329.1 13.1 323 9.9
2010-09-07 06:32:48 51°14.786 2°54.714 327 13.1 321 10
2010-09-07 06:33:52 51°14.966 2°54.479 327 12.9 320 8.9
2010-09-07 06:34:51 51°15.131 2°54.27 330.3 13 324 8.7
2010-09-07 06:35:50 51°15.302 2°54.062 329.3 13.2 323 9.2
2010-09-07 06:36:49 51°15.473 2°53.85 328.4 13.2 322 9.7
2010-09-07 06:37:48 51°15.643 2°53.639 330.9 13.2 325 10.2
2010-09-07 06:38:48 51°15.825 2°53.447 333.2 13.1 326 10.4
2010-09-07 06:39:48 51°16.004 2°53.252 333.4 13 326 10.7
2010-09-07 06:40:48 51°16.181 2°53.059 333.9 12.8 328 10.9
2010-09-07 06:41:48 51°16.362 2°52.876 336.1 12.8 332 11
2010-09-07 06:42:48 51°16.552 2°52.728 340 12.7 334 10.4
2010-09-07 06:43:48 51°16.741 2°52.582 340.1 12.4 334 8.8
2010-09-07 06:44:48 51°16.924 2°52.434 339.1 12.4 332 8.5
2010-09-07 06:45:48 51°17.104 2°52.275 338.9 12.5 331 9.1
2010-09-07 06:46:48 51°17.292 2°52.126 341.9 12.6 335 10.3
2010-09-07 06:47:48 51°17.479 2°51.986 341.5 12.3 334 9.4
2010-09-07 06:48:48 51°17.664 2°51.843 341.5 12.4 334 9.3
2010-09-07 06:49:48 51°17.851 2°51.699 341.3 12.6 335 9.4
2010-09-07 06:50:48 51°18.04 2°51.552 341.1 12.7 334 9.9
2010-09-07 06:51:48 51°18.23 2°51.398 339.6 12.8 330 11.5
2010-09-07 06:52:48 51°18.399 2°51.216 333.4 10.9 323 13
2010-09-07 06:53:48 51°18.501 2°51.093 339 5.4 323 12.6
2010-09-07 06:54:48 51°18.535 2°51.022 314.4 2.3 277 13.3
2010-09-07 06:55:48 51°18.526 2°50.992 295.4 1.1 222 13.3
2010-09-07 06:56:48 51°18.516 2°50.973 300.3 0.9 231 -999
2010-09-07 06:57:48 51°18.506 2°50.954 309.7 0.9 235 13.1
2010-09-07 06:58:48 51°18.496 2°50.931 317 1 236 13.2
2010-09-07 06:59:48 51°18.487 2°50.908 317.7 1 241 13.2
2010-09-07 07:00:48 51°18.479 2°50.885 315 1.1 240 13.4
2010-09-07 07:01:48 51°18.47 2°50.86 310 1.1 244 13.3
2010-09-07 07:02:48 51°18.463 2°50.835 308.3 1.2 242 13.1
2010-09-07 07:03:48 51°18.454 2°50.809 307.1 1.1 243 13.5
2010-09-07 07:04:48 51°18.446 2°50.783 304.9 1.1 249 13.3
2010-09-07 07:05:48 51°18.438 2°50.756 303.4 1.2 244 13.4
2010-09-07 07:06:48 51°18.431 2°50.729 300 1.1 247 13.4
2010-09-07 07:07:48 51°18.423 2°50.7 296.2 1.1 248 13.3
2010-09-07 07:08:48 51°18.416 2°50.671 295.4 1.1 253 13.3
2010-09-07 07:09:48 51°18.408 2°50.642 294 1.2 251 13.4
2010-09-07 07:10:48 51°18.401 2°50.613 293.4 1.3 248 13.4
2010-09-07 07:11:48 51°18.394 2°50.581 292.4 1.5 254 13.7
2010-09-07 07:12:48 51°18.406 2°50.496 316.3 4.8 300 13.8
2010-09-07 07:13:48 51°18.492 2°50.442 0.1 7.7 347 13.8
2010-09-07 07:14:48 51°18.648 2°50.375 354.2 11.6 345 13.5
2010-09-07 07:15:48 51°18.847 2°50.317 358.6 12.4 352 13.5
2010-09-07 07:16:48 51°19.05 2°50.269 358.9 12.4 352 12.2
2010-09-07 07:17:48 51°19.255 2°50.228 359 12.4 352 10.8
2010-09-07 07:18:48 51°19.461 2°50.187 358.8 12.6 353 11.1
2010-09-07 07:19:48 51°19.669 2°50.15 358.7 12.7 353 12.8
2010-09-07 07:20:48 51°19.878 2°50.11 359.1 12.6 353 14.3
2010-09-07 07:21:48 51°20.086 2°50.063 358.9 12.6 352 15.9
2010-09-07 07:22:48 51°20.294 2°50.018 359.6 12.6 353 18
2010-09-07 07:23:48 51°20.503 2°49.97 358.9 12.6 352 20.4
2010-09-07 07:24:48 51°20.712 2°49.921 359.4 12.8 352 21.9
2010-09-07 07:25:48 51°20.922 2°49.873 359.4 12.8 352 22
2010-09-07 07:26:48 51°21.131 2°49.829 359.1 12.7 353 22.4
2010-09-07 07:27:48 51°21.34 2°49.784 359.1 12.6 352 21.8
2010-09-07 07:28:48 51°21.548 2°49.735 359.2 12.5 351 21.4
2010-09-07 07:29:48 51°21.753 2°49.69 358.6 12.5 352 21.9
2010-09-07 07:30:48 51°21.957 2°49.647 359.3 12.5 352 22.6
2010-09-07 07:31:48 51°22.163 2°49.601 358.9 12.5 352 23.5
2010-09-07 07:32:48 51°22.371 2°49.567 358.5 12.5 353 20.8
2010-09-07 07:33:48 51°22.574 2°49.502 353.4 12.3 348 19.3
2010-09-07 07:34:48 51°22.776 2°49.432 350.8 12.2 344 14.3
2010-09-07 07:35:48 51°22.971 2°49.348 350.2 12.2 345 14.1
2010-09-07 07:36:48 51°23.163 2°49.257 350.2 11.4 343 16.2
2010-09-07 07:37:48 51°23.307 2°49.183 351.8 7.4 340 20.3
2010-09-07 07:38:48 51°23.404 2°49.12 349.9 5.9 336 19.6
2010-09-07 07:39:48 51°23.488 2°49.062 351.4 5.1 334 21.3
2010-09-07 07:40:48 51°23.533 2°49.002 330.7 2.4 296 21.8
2010-09-07 07:41:48 51°23.528 2°48.972 300.6 1 222 19.9
2010-09-07 07:42:48 51°23.515 2°48.956 309.3 0.9 217 22.1
2010-09-07 07:43:48 51°23.502 2°48.94 319.2 1 217 22
2010-09-07 07:44:48 51°23.49 2°48.923 327.8 1.1 224 22
2010-09-07 07:45:48 51°23.48 2°48.906 335 1 230 21.8
2010-09-07 07:46:48 51°23.468 2°48.885 338.8 1 234 21.4
2010-09-07 07:47:48 51°23.458 2°48.862 338.9 1.1 244 20.1
2010-09-07 07:48:48 51°23.451 2°48.839 334.1 1 246 21.8
2010-09-07 07:49:48 51°23.445 2°48.813 328.2 0.9 263 21.2
2010-09-07 07:50:48 51°23.472 2°48.774 355.3 4.7 343 22.6
2010-09-07 07:51:48 51°23.61 2°48.721 357.2 10.8 350 22.5
2010-09-07 07:52:48 51°23.808 2°48.68 359.9 12.2 355 22
2010-09-07 07:53:48 51°24.01 2°48.639 359.4 12.2 352 22.4
2010-09-07 07:54:50 51°24.219 2°48.595 359.4 12.3 353 21
2010-09-07 07:56:30 51°24.557 2°48.565 3.7 12.4 357 20.3
2010-09-07 07:57:31 51°24.764 2°48.552 6 12.2 -999 24.6
2010-09-07 07:58:31 51°24.968 2°48.549 5.9 12.3 1 25.9
2010-09-07 07:59:31 51°25.17 2°48.553 7.4 12.1 1 27.1
2010-09-07 08:00:31 51°25.374 2°48.561 6.9 12.2 1 28.6
2010-09-07 08:01:31 51°25.576 2°48.566 6.3 12 2 24.4
2010-09-07 08:02:31 51°25.751 2°48.567 6.3 8.3 -999 23.4
2010-09-07 08:03:31 51°25.858 2°48.564 6.6 5.3 358 23.8
2010-09-07 08:04:31 51°25.941 2°48.546 355.7 4.7 343 23.5
2010-09-07 08:05:31 51°25.976 2°48.501 315.1 1.5 284 23.4
2010-09-07 08:06:31 51°25.968 2°48.477 298.8 0.9 232 23.7
2010-09-07 08:07:31 51°25.959 2°48.46 301.9 0.8 230 23.6
2010-09-07 08:08:31 51°25.95 2°48.445 307.1 0.8 218 23.1
2010-09-07 08:09:31 51°25.939 2°48.433 314.8 0.8 216 23.5
2010-09-07 08:10:31 51°25.929 2°48.423 321.4 0.8 212 23.4
2010-09-07 08:11:31 51°25.918 2°48.411 328.8 0.9 213 23.5
2010-09-07 08:12:31 51°25.906 2°48.4 332.2 0.8 210 23.4
2010-09-07 08:13:31 51°25.91 2°48.381 352.8 2.7 334 23.5
2010-09-07 08:14:31 51°26.025 2°48.329 352.7 10.4 346 23.6
2010-09-07 08:15:31 51°26.218 2°48.253 352.3 12.4 345 21.2
2010-09-07 08:16:32 51°26.42 2°48.176 352.9 12.3 346 19.8
2010-09-07 08:17:32 51°26.62 2°48.103 353.8 12.4 347 22.7
2010-09-07 08:18:32 51°26.819 2°48.008 345.6 12.6 339 23.8
2010-09-07 08:19:32 51°27.014 2°47.88 344.3 12.8 338 25
2010-09-07 08:20:32 51°27.201 2°47.716 332.8 13 326 27.1
2010-09-07 08:21:32 51°27.38 2°47.525 333.3 13 327 28.2
2010-09-07 08:22:32 51°27.562 2°47.339 333.2 12.9 328 29.6
2010-09-07 08:23:32 51°27.745 2°47.154 333.8 13 328 32
2010-09-07 08:24:32 51°27.93 2°46.968 334.2 13.2 328 31.9
2010-09-07 08:25:32 51°28.112 2°46.779 332 13 329 29.7
2010-09-07 08:26:32 51°28.291 2°46.59 332.4 12.8 328 27.9
2010-09-07 08:27:32 51°28.466 2°46.393 328.7 12.9 323 27.2
2010-09-07 08:28:32 51°28.63 2°46.201 326.2 10.2 321 26.9
2010-09-07 08:29:32 51°28.699 2°46.042 299.8 5 287 26.6
2010-09-07 08:30:32 51°28.696 2°45.985 257.7 0.6 235 27.8
2010-09-07 08:31:35 51°28.689 2°45.981 263.8 0.5 206 -999
2010-09-07 08:32:35 51°28.683 2°45.974 276.7 0.5 216 27.7
2010-09-07 08:33:35 51°28.675 2°45.968 289.8 0.5 205 27.9
2010-09-07 08:34:33 51°28.667 2°45.96 294.6 0.6 209 26.5
2010-09-07 08:35:33 51°28.657 2°45.953 298.1 0.8 203 23.3
2010-09-07 08:36:32 51°28.648 2°45.946 302 0.5 199 24.3
2010-09-07 08:37:32 51°28.64 2°45.942 305.7 0.6 200 25.7
2010-09-07 08:38:32 51°28.631 2°45.939 311.1 0.4 199 25.7
2010-09-07 08:39:32 51°28.63 2°45.909 286 2.1 268 25.7
2010-09-07 08:40:32 51°28.6 2°45.836 218.1 4.3 216 26.6
2010-09-07 08:41:32 51°28.509 2°45.815 171.5 7.8 175 27.1
2010-09-07 08:42:32 51°28.333 2°45.877 163.2 13.2 165 27.6
2010-09-07 08:43:32 51°28.116 2°45.962 163.2 13.3 167 27.1
2010-09-07 08:44:32 51°27.902 2°46.056 163 13.5 169 28.2
2010-09-07 08:45:32 51°27.685 2°46.14 165.7 13.6 168 29
2010-09-07 08:46:32 51°27.465 2°46.204 164.8 13.6 172 29.2
2010-09-07 08:47:32 51°27.247 2°46.271 165 13.5 172 31.3
2010-09-07 08:48:31 51°27.033 2°46.343 165.2 13.2 164 30.9
2010-09-07 08:49:32 51°26.813 2°46.419 164.6 12.9 171 26.9
2010-09-07 08:50:32 51°26.598 2°46.512 158.3 13.6 162 27.3
2010-09-07 08:51:32 51°26.385 2°46.62 160 13.7 162 24.2
2010-09-07 08:52:32 51°26.172 2°46.729 160.5 13.3 161 26.1
2010-09-07 08:53:32 51°25.958 2°46.841 159.6 13.5 159 24.5
2010-09-07 08:54:32 51°25.744 2°46.948 159 13.3 165 23.3
2010-09-07 08:55:32 51°25.533 2°47.066 157.7 13.5 162 25.4
2010-09-07 08:56:32 51°25.32 2°47.176 161.3 13.6 161 25.8
2010-09-07 08:57:32 51°25.109 2°47.29 159.6 13.3 159 25.8
2010-09-07 08:58:32 51°24.899 2°47.403 158.9 13.3 158 31.2
2010-09-07 08:59:32 51°24.69 2°47.514 159.3 13.2 165 30.9
2010-09-07 09:00:32 51°24.483 2°47.624 159.9 13.1 162 28
2010-09-07 09:01:32 51°24.274 2°47.731 159.6 13.3 163 23.6
2010-09-07 09:02:32 51°24.065 2°47.844 159.7 13.3 160 25.5
2010-09-07 09:03:32 51°23.856 2°47.961 159.1 13.5 159 20.1
2010-09-07 09:04:32 51°23.646 2°48.073 160.1 13.2 161 20.8
2010-09-07 09:05:32 51°23.437 2°48.191 159.4 13.2 161 22.3
2010-09-07 09:06:32 51°23.224 2°48.303 160.3 13.7 161 22.7
2010-09-07 09:07:32 51°23.003 2°48.353 175.8 13.2 179 20.7
2010-09-07 09:08:32 51°22.783 2°48.328 192.4 13.4 198 20
2010-09-07 09:09:32 51°22.57 2°48.22 191.6 13.6 190 18
2010-09-07 09:10:32 51°22.347 2°48.186 180.3 13.5 182 21
2010-09-07 09:11:32 51°22.128 2°48.22 168 13.1 166 24.5
2010-09-07 09:12:32 51°21.923 2°48.351 153 13.5 155 24.4
2010-09-07 09:13:32 51°21.726 2°48.516 153.1 13.5 152 24.4
2010-09-07 09:14:32 51°21.529 2°48.675 152.5 12.9 156 23.7
2010-09-07 09:15:32 51°21.334 2°48.828 154.1 12.9 154 22.3
2010-09-07 09:16:32 51°21.138 2°48.983 150.2 13.1 150 21.1
2010-09-07 09:17:32 51°20.949 2°49.157 149.1 13 152 23.5
2010-09-07 09:18:32 51°20.765 2°49.334 149.6 12.7 153 24
2010-09-07 09:19:32 51°20.577 2°49.508 149 12.8 151 23.7
2010-09-07 09:20:32 51°20.391 2°49.681 148.6 12.9 151 22.7
2010-09-07 09:21:32 51°20.204 2°49.857 149.8 13.2 147 20.3
2010-09-07 09:22:32 51°20.017 2°50.034 149.2 13.3 150 17.3
2010-09-07 09:23:32 51°19.829 2°50.214 148.8 13 149 15.3
2010-09-07 09:24:32 51°19.639 2°50.397 149.3 13.5 144 13.9
2010-09-07 09:25:32 51°19.45 2°50.581 149.8 13.8 148 14
2010-09-07 09:26:32 51°19.261 2°50.767 149.8 13.4 147 15.8
2010-09-07 09:27:32 51°19.074 2°50.95 148.4 13.1 149 16.5
2010-09-07 09:28:32 51°18.886 2°51.124 151.2 13.1 155 16.2
2010-09-07 09:29:32 51°18.691 2°51.286 153.5 13.4 152 15.7
2010-09-07 09:30:32 51°18.496 2°51.446 152.5 13.3 153 14.8
2010-09-07 09:31:32 51°18.303 2°51.613 152.1 13.1 150 13.6
2010-09-07 09:32:32 51°18.109 2°51.777 152.3 13.4 151 12.6
2010-09-07 09:33:32 51°17.915 2°51.942 152.8 13.4 151 12.1
2010-09-07 09:34:32 51°17.724 2°52.109 152.5 13 152 12.9
2010-09-07 09:35:32 51°17.535 2°52.28 150.4 13.2 149 12.2
2010-09-07 09:36:32 51°17.35 2°52.467 148.8 13.3 148 12.2
2010-09-07 09:37:32 51°17.169 2°52.661 146.5 12.8 146 11.6
2010-09-07 09:38:32 51°16.987 2°52.862 147.2 13 146 11.3
2010-09-07 09:39:32 51°16.815 2°53.084 134.5 13.2 135 11.6
2010-09-07 09:40:32 51°16.681 2°53.375 127.3 13.5 124 13.2
2010-09-07 09:41:32 51°16.552 2°53.669 128.3 13.8 123 13.3
2010-09-07 09:42:32 51°16.422 2°53.966 127.8 13.7 124 13.3
2010-09-07 09:43:32 51°16.33 2°54.209 121.1 8.6 114 13.2
2010-09-07 09:44:32 51°16.282 2°54.362 149.2 4.8 138 13
2010-09-07 09:45:32 51°16.23 2°54.395 203.7 2.3 179 13.2
2010-09-07 09:46:32 51°16.212 2°54.396 234.3 0.7 95 12.9
2010-09-07 09:47:32 51°16.216 2°54.417 254 0.9 68 13
2010-09-07 09:48:32 51°16.226 2°54.442 271 1.3 58 13
2010-09-07 09:49:32 51°16.239 2°54.47 286.8 1.4 57 13.2
2010-09-07 09:50:32 51°16.253 2°54.503 297.7 1.5 54 13.5
2010-09-07 09:51:32 51°16.267 2°54.538 302.6 1.7 57 13.1
2010-09-07 09:52:32 51°16.283 2°54.576 304.9 1.8 57 13.2
2010-09-07 09:53:32 51°16.298 2°54.612 301.4 1.5 28 13.2
2010-09-07 09:54:32 51°16.302 2°54.59 233.8 2.2 224 13.2
2010-09-07 09:55:32 51°16.222 2°54.511 214.8 8.3 209 13.3
2010-09-07 09:56:32 51°16.059 2°54.449 187.3 11.7 180 12.9
2010-09-07 09:57:32 51°15.855 2°54.428 188.1 12.5 183 12.8
2010-09-07 09:58:32 51°15.648 2°54.414 187.5 12.4 183 12.4
2010-09-07 09:59:32 51°15.443 2°54.403 185.7 12.3 178 11.8
2010-09-07 10:00:32 51°15.238 2°54.417 181.3 12 173 11.3
2010-09-07 10:01:32 51°15.04 2°54.512 159.9 12.9 152 12
2010-09-07 10:02:32 51°14.858 2°54.703 151.1 13 143 13.4
2010-09-07 10:03:32 51°14.676 2°54.896 155.1 13 148 13.7
2010-09-07 10:04:32 51°14.496 2°55.084 154.8 12.9 149 12.9
2010-09-07 10:05:32 51°14.316 2°55.243 148.1 11.6 149 13.1
2010-09-07 10:06:32 51°14.15 2°55.392 152.8 10.8 154 5.9
2010-09-07 10:07:32 51°14.006 2°55.498 155.2 8.5 156 13.1
2010-09-07 10:08:32 51°13.897 2°55.58 155 6.6 155 13.1
2010-09-07 10:09:31 51°13.804 2°55.658 146.2 6.3 145 14.3
2010-09-07 10:10:31 51°13.732 2°55.767 131.1 5.9 130 13.9
2010-09-07 10:11:31 51°13.682 2°55.885 118.1 4.7 117 11
2010-09-07 10:12:31 51°13.663 2°55.958 118.5 0.7 104 8.7
2010-09-07 10:13:31 51°13.662 2°55.96 126.7 0.2 61 -999